createdAt,value
2019-02-18T00:00:45.527Z,74.40
2019-02-18T00:01:45.499Z,74.46
2019-02-18T00:02:45.592Z,74.50
2019-02-18T00:03:45.588Z,75.12
2019-02-18T00:04:45.479Z,75.12
2019-02-18T00:05:45.472Z,75.02
2019-02-18T00:06:45.460Z,75.12
2019-02-18T00:07:45.512Z,75.32
2019-02-18T00:08:45.577Z,75.12
2019-02-18T00:09:45.508Z,75.12
2019-02-18T00:10:45.496Z,75.12
2019-02-18T00:11:45.414Z,75.43
2019-02-18T00:12:45.393Z,75.32
2019-02-18T00:13:45.411Z,75.32
2019-02-18T00:14:45.375Z,75.32
2019-02-18T00:15:45.386Z,75.32
2019-02-18T00:16:45.339Z,75.43
2019-02-18T00:17:45.329Z,75.43
2019-02-18T00:18:45.311Z,75.36
2019-02-18T00:19:45.302Z,75.57
2019-02-18T00:20:45.300Z,75.46
2019-02-18T00:21:45.342Z,75.67
2019-02-18T00:22:45.285Z,75.67
2019-02-18T00:23:45.280Z,75.98
2019-02-18T00:24:45.258Z,76.19
2019-02-18T00:25:45.244Z,76.61
2019-02-18T00:26:45.228Z,77.02
2019-02-18T00:27:45.254Z,76.75
2019-02-18T00:28:45.230Z,76.81
2019-02-18T00:29:45.259Z,77.06
2019-02-18T00:30:45.180Z,77.16
2019-02-18T00:31:45.179Z,76.95
2019-02-18T00:32:45.219Z,76.78
2019-02-18T00:33:45.257Z,77.40
2019-02-18T00:34:45.142Z,77.51
2019-02-18T00:35:45.148Z,77.20
2019-02-18T00:36:45.125Z,77.92
2019-02-18T00:37:45.116Z,77.85
2019-02-18T00:38:45.250Z,77.95
2019-02-18T00:39:45.192Z,78.03
2019-02-18T00:40:45.075Z,78.27
2019-02-18T00:41:45.081Z,78.06
2019-02-18T00:42:45.058Z,78.47
2019-02-18T00:43:45.044Z,78.06
2019-02-18T00:44:45.042Z,78.61
2019-02-18T00:45:45.175Z,79.03
2019-02-18T00:46:45.014Z,78.92
2019-02-18T00:47:44.999Z,78.61
2019-02-18T00:48:45.003Z,78.68
2019-02-18T00:49:44.986Z,79.10
2019-02-18T00:50:44.964Z,78.89
2019-02-18T00:51:45.030Z,79.44
2019-02-18T00:52:44.953Z,79.03
2019-02-18T00:53:44.937Z,79.13
2019-02-18T00:54:44.931Z,79.55
2019-02-18T00:55:44.924Z,79.55
2019-02-18T00:56:44.911Z,80.07
2019-02-18T00:57:45.050Z,80.49
2019-02-18T00:58:44.889Z,80.07
2019-02-18T00:59:44.876Z,79.65
2019-02-18T01:00:44.871Z,79.86
2019-02-18T01:01:44.852Z,79.76
2019-02-18T01:02:44.847Z,79.65
2019-02-18T01:03:44.945Z,80.00
2019-02-18T01:04:44.839Z,80.00
2019-02-18T01:05:44.807Z,80.42
2019-02-18T01:06:44.798Z,79.97
2019-02-18T01:07:44.884Z,80.11
2019-02-18T01:08:44.810Z,80.52
2019-02-18T01:09:44.977Z,80.49
2019-02-18T01:10:44.755Z,80.07
2019-02-18T01:11:44.764Z,79.97
2019-02-18T01:12:44.772Z,79.65
2019-02-18T01:13:44.722Z,79.13
2019-02-18T01:14:44.702Z,79.65
2019-02-18T01:15:44.834Z,79.44
2019-02-18T01:16:44.703Z,79.80
2019-02-18T01:17:44.674Z,79.55
2019-02-18T01:18:44.674Z,79.03
2019-02-18T01:19:44.755Z,79.58
2019-02-18T01:20:44.648Z,80.63
2019-02-18T01:21:44.693Z,80.42
2019-02-18T01:22:44.638Z,80.42
2019-02-18T01:23:44.606Z,80.52
2019-02-18T01:24:44.593Z,80.52
2019-02-18T01:25:44.592Z,80.42
2019-02-18T01:26:44.596Z,80.32
2019-02-18T01:27:44.650Z,80.00
2019-02-18T01:28:44.558Z,80.42
2019-02-18T01:29:44.544Z,81.15
2019-02-18T01:30:44.586Z,80.94
2019-02-18T01:31:44.524Z,80.32
2019-02-18T01:32:44.526Z,80.42
2019-02-18T01:33:44.535Z,80.21
2019-02-18T01:34:44.491Z,80.42
2019-02-18T01:35:44.488Z,80.42
2019-02-18T01:36:44.466Z,80.94
2019-02-18T01:37:46.031Z,80.94
2019-02-18T01:38:44.468Z,79.80
2019-02-18T01:39:44.505Z,80.25
2019-02-18T01:40:44.477Z,80.77
2019-02-18T01:41:44.420Z,80.73
2019-02-18T01:42:44.416Z,80.83
2019-02-18T01:43:44.391Z,80.98
2019-02-18T01:44:44.391Z,80.21
2019-02-18T01:45:44.700Z,80.87
2019-02-18T01:46:44.368Z,80.87
2019-02-18T01:47:44.389Z,81.18
2019-02-18T01:48:44.367Z,81.08
2019-02-18T01:49:44.347Z,80.87
2019-02-18T01:50:44.326Z,81.08
2019-02-18T01:51:44.531Z,80.77
2019-02-18T01:52:44.293Z,80.73
2019-02-18T01:53:44.285Z,79.94
2019-02-18T01:54:44.287Z,80.56
2019-02-18T01:55:44.313Z,80.77
2019-02-18T01:56:44.288Z,80.77
2019-02-18T01:57:44.403Z,80.77
2019-02-18T01:58:44.248Z,80.52
2019-02-18T01:59:44.281Z,80.83
2019-02-18T02:00:44.285Z,80.98
2019-02-18T02:01:44.218Z,80.04
2019-02-18T02:02:44.194Z,80.77
2019-02-18T02:03:44.544Z,80.87
2019-02-18T02:04:44.166Z,81.08
2019-02-18T02:05:44.226Z,80.21
2019-02-18T02:06:44.156Z,80.94
2019-02-18T02:07:44.141Z,80.04
2019-02-18T02:08:44.126Z,80.87
2019-02-18T02:09:44.418Z,81.01
2019-02-18T02:10:44.130Z,81.08
2019-02-18T02:11:44.127Z,80.87
2019-02-18T02:12:44.075Z,81.43
2019-02-18T02:13:44.065Z,81.43
2019-02-18T02:14:44.087Z,81.53
2019-02-18T02:15:44.091Z,82.05
2019-02-18T02:16:44.033Z,82.57
2019-02-18T02:17:44.028Z,82.26
2019-02-18T02:18:44.022Z,82.68
2019-02-18T02:19:44.010Z,82.15
2019-02-18T02:20:43.999Z,82.36
2019-02-18T02:21:44.023Z,82.36
2019-02-18T02:22:43.992Z,82.40
2019-02-18T02:23:43.995Z,82.26
2019-02-18T02:24:43.979Z,82.51
2019-02-18T02:25:43.942Z,82.15
2019-02-18T02:26:43.932Z,82.26
2019-02-18T02:27:44.008Z,82.57
2019-02-18T02:28:43.908Z,82.46
2019-02-18T02:29:43.903Z,82.57
2019-02-18T02:30:43.886Z,82.36
2019-02-18T02:31:43.868Z,82.68
2019-02-18T02:32:43.887Z,82.89
2019-02-18T02:33:43.914Z,82.15
2019-02-18T02:34:43.861Z,82.20
2019-02-18T02:35:43.832Z,82.40
2019-02-18T02:36:43.826Z,82.71
2019-02-18T02:37:43.802Z,82.61
2019-02-18T02:38:43.815Z,82.30
2019-02-18T02:39:43.844Z,82.30
2019-02-18T02:40:43.778Z,82.51
2019-02-18T02:41:43.770Z,82.40
2019-02-18T02:42:43.774Z,82.61
2019-02-18T02:43:43.757Z,82.68
2019-02-18T02:44:43.747Z,82.68
2019-02-18T02:45:43.815Z,82.71
2019-02-18T02:46:43.747Z,82.61
2019-02-18T02:47:43.719Z,82.26
2019-02-18T02:48:43.702Z,82.05
2019-02-18T02:49:43.673Z,82.61
2019-02-18T02:50:43.679Z,82.51
2019-02-18T02:51:43.734Z,82.89
2019-02-18T02:52:43.674Z,82.68
2019-02-18T02:53:43.683Z,82.61
2019-02-18T02:54:43.645Z,82.68
2019-02-18T02:55:43.619Z,82.46
2019-02-18T02:56:43.611Z,82.36
2019-02-18T02:57:43.697Z,82.36
2019-02-18T02:58:43.599Z,82.30
2019-02-18T02:59:43.569Z,82.15
2019-02-18T03:00:43.565Z,82.05
2019-02-18T03:01:43.594Z,82.40
2019-02-18T03:02:43.567Z,82.61
2019-02-18T03:03:43.590Z,82.82
2019-02-18T03:04:43.522Z,83.69
2019-02-18T03:05:43.512Z,82.92
2019-02-18T03:06:43.498Z,83.48
2019-02-18T03:07:43.485Z,84.31
2019-02-18T03:08:43.481Z,84.31
2019-02-18T03:09:43.525Z,83.48
2019-02-18T03:10:43.498Z,84.00
2019-02-18T03:11:43.450Z,84.25
2019-02-18T03:12:43.434Z,84.14
2019-02-18T03:13:43.431Z,84.25
2019-02-18T03:14:43.417Z,84.45
2019-02-18T03:15:43.442Z,84.87
2019-02-18T03:16:43.378Z,84.87
2019-02-18T03:17:43.381Z,84.81
2019-02-18T03:18:43.379Z,85.12
2019-02-18T03:19:43.357Z,84.81
2019-02-18T03:20:43.365Z,84.81
2019-02-18T03:21:43.392Z,85.64
2019-02-18T03:22:43.337Z,85.33
2019-02-18T03:23:43.330Z,85.53
2019-02-18T03:24:43.315Z,85.02
2019-02-18T03:25:43.283Z,85.33
2019-02-18T03:26:43.298Z,85.53
2019-02-18T03:27:43.356Z,85.47
2019-02-18T03:28:43.258Z,85.68
2019-02-18T03:29:43.291Z,86.10
2019-02-18T03:30:43.284Z,85.99
2019-02-18T03:31:43.286Z,85.89
2019-02-18T03:32:43.204Z,85.78
2019-02-18T03:33:43.399Z,86.20
2019-02-18T03:34:43.226Z,86.66
2019-02-18T03:35:43.194Z,86.41
2019-02-18T03:36:43.163Z,86.45
2019-02-18T03:37:43.163Z,86.30
2019-02-18T03:38:43.148Z,86.45
2019-02-18T03:39:43.196Z,85.99
2019-02-18T03:40:43.122Z,86.13
2019-02-18T03:41:43.144Z,86.35
2019-02-18T03:42:43.120Z,86.24
2019-02-18T03:43:43.093Z,85.86
2019-02-18T03:44:43.077Z,86.45
2019-02-18T03:45:43.107Z,86.38
2019-02-18T03:46:43.057Z,86.49
2019-02-18T03:47:43.061Z,86.76
2019-02-18T03:48:43.059Z,86.87
2019-02-18T03:49:43.073Z,86.87
2019-02-18T03:50:43.033Z,87.43
2019-02-18T03:51:43.088Z,86.66
2019-02-18T03:52:42.993Z,87.12
2019-02-18T03:53:42.984Z,87.22
2019-02-18T03:54:42.970Z,87.43
2019-02-18T03:55:42.971Z,87.12
2019-02-18T03:56:42.951Z,87.12
2019-02-18T03:57:43.012Z,87.01
2019-02-18T03:58:42.933Z,87.12
2019-02-18T03:59:42.931Z,87.53
2019-02-18T04:00:42.921Z,87.12
2019-02-18T04:01:42.909Z,87.53
2019-02-18T04:02:42.902Z,87.70
2019-02-18T04:03:43.041Z,87.81
2019-02-18T04:04:42.888Z,87.81
2019-02-18T04:05:42.917Z,87.18
2019-02-18T04:06:42.850Z,87.39
2019-02-18T04:07:42.826Z,87.07
2019-02-18T04:08:43.402Z,87.07
2019-02-18T04:09:42.919Z,86.97
2019-02-18T04:10:42.840Z,87.39
2019-02-18T04:11:42.840Z,87.39
2019-02-18T04:12:42.830Z,87.35
2019-02-18T04:13:42.803Z,87.39
2019-02-18T04:14:42.758Z,87.04
2019-02-18T04:15:42.935Z,87.04
2019-02-18T04:16:42.730Z,86.93
2019-02-18T04:17:42.733Z,86.68
2019-02-18T04:18:42.730Z,85.96
2019-02-18T04:19:42.701Z,85.39
2019-02-18T04:20:42.708Z,84.52
2019-02-18T04:21:42.712Z,83.75
2019-02-18T04:22:42.661Z,83.44
2019-02-18T04:23:42.658Z,82.92
2019-02-18T04:24:42.655Z,82.61
2019-02-18T04:25:42.635Z,82.20
2019-02-18T04:26:42.629Z,82.36
2019-02-18T04:27:42.687Z,82.46
2019-02-18T04:28:42.620Z,82.51
2019-02-18T04:29:42.626Z,82.40
2019-02-18T04:30:42.701Z,82.20
2019-02-18T04:31:42.564Z,82.61
2019-02-18T04:32:42.549Z,82.71
2019-02-18T04:33:42.579Z,82.92
2019-02-18T04:34:42.530Z,84.06
2019-02-18T04:35:42.566Z,83.44
2019-02-18T04:36:42.565Z,82.57
2019-02-18T04:37:42.509Z,82.36
2019-02-18T04:38:53.595Z,82.26
2019-02-18T04:39:43.638Z,81.49
2019-02-18T04:40:42.473Z,81.29
2019-02-18T04:41:42.492Z,81.18
2019-02-18T04:42:42.466Z,80.94
2019-02-18T04:43:42.437Z,80.21
2019-02-18T04:44:42.429Z,80.42
2019-02-18T04:45:42.482Z,80.52
2019-02-18T04:46:42.437Z,80.42
2019-02-18T04:47:42.418Z,80.07
2019-02-18T04:48:42.383Z,81.04
2019-02-18T04:49:42.392Z,80.73
2019-02-18T04:50:42.368Z,80.87
2019-02-18T04:51:42.391Z,81.46
2019-02-18T04:52:42.403Z,81.60
2019-02-18T04:53:42.330Z,81.81
2019-02-18T04:54:42.315Z,81.60
2019-02-18T04:55:42.311Z,82.26
2019-02-18T04:56:42.291Z,82.32
2019-02-18T04:57:42.379Z,82.26
2019-02-18T04:58:42.271Z,82.15
2019-02-18T04:59:42.275Z,82.26
2019-02-18T05:00:42.257Z,82.12
2019-02-18T05:01:42.245Z,82.15
2019-02-18T05:02:42.301Z,82.15
2019-02-18T05:03:42.267Z,82.26
2019-02-18T05:04:42.205Z,82.36
2019-02-18T05:05:42.218Z,82.15
2019-02-18T05:06:42.182Z,82.15
2019-02-18T05:07:42.179Z,82.26
2019-02-18T05:08:42.171Z,82.30
2019-02-18T05:09:42.258Z,82.36
2019-02-18T05:10:42.137Z,82.20
2019-02-18T05:11:42.168Z,82.71
2019-02-18T05:12:42.121Z,82.71
2019-02-18T05:13:42.103Z,82.51
2019-02-18T05:14:42.095Z,83.06
2019-02-18T05:15:42.283Z,83.90
2019-02-18T05:16:42.077Z,83.58
2019-02-18T05:17:42.061Z,83.73
2019-02-18T05:18:42.064Z,84.04
2019-02-18T05:19:42.041Z,84.66
2019-02-18T05:20:42.188Z,84.77
2019-02-18T05:21:42.070Z,84.70
2019-02-18T05:22:42.009Z,84.45
2019-02-18T05:23:42.006Z,84.66
2019-02-18T05:24:41.987Z,84.81
2019-02-18T05:25:41.973Z,85.26
2019-02-18T05:26:41.982Z,86.20
2019-02-18T05:27:41.999Z,86.16
2019-02-18T05:28:41.945Z,85.74
2019-02-18T05:29:41.937Z,85.12
2019-02-18T05:30:41.938Z,85.22
2019-02-18T05:31:41.914Z,85.12
2019-02-18T05:32:41.919Z,84.91
2019-02-18T05:33:41.952Z,85.22
2019-02-18T05:34:41.877Z,84.81
2019-02-18T05:35:41.869Z,84.91
2019-02-18T05:36:41.871Z,84.95
2019-02-18T05:37:41.846Z,85.26
2019-02-18T05:38:41.838Z,85.58
2019-02-18T05:39:41.874Z,85.78
2019-02-18T05:40:41.811Z,85.89
2019-02-18T05:41:41.803Z,85.99
2019-02-18T05:42:41.861Z,86.10
2019-02-18T05:43:41.785Z,86.93
2019-02-18T05:44:41.768Z,86.72
2019-02-18T05:45:41.893Z,86.89
2019-02-18T05:46:41.749Z,86.72
2019-02-18T05:47:41.761Z,86.37
2019-02-18T05:48:41.734Z,86.37
2019-02-18T05:49:41.715Z,85.96
2019-02-18T05:50:41.712Z,85.33
2019-02-18T05:51:41.753Z,85.19
2019-02-18T05:52:41.684Z,84.77
2019-02-18T05:53:41.681Z,84.50
2019-02-18T05:54:41.670Z,84.56
2019-02-18T05:55:41.659Z,84.25
2019-02-18T05:56:41.685Z,84.45
2019-02-18T05:57:41.705Z,84.39
2019-02-18T05:58:41.625Z,84.60
2019-02-18T05:59:41.619Z,84.91
2019-02-18T06:00:41.615Z,85.58
2019-02-18T06:01:41.629Z,85.36
2019-02-18T06:02:41.675Z,86.10
2019-02-18T06:03:41.596Z,85.96
2019-02-18T06:04:41.555Z,85.74
2019-02-18T06:05:41.541Z,85.43
2019-02-18T06:06:41.541Z,85.47
2019-02-18T06:07:41.521Z,85.89
2019-02-18T06:08:41.510Z,85.58
2019-02-18T06:09:41.537Z,85.47
2019-02-18T06:10:41.486Z,85.58
2019-02-18T06:11:41.476Z,85.36
2019-02-18T06:12:41.474Z,85.20
2019-02-18T06:13:41.467Z,85.41
2019-02-18T06:14:41.446Z,85.30
2019-02-18T06:15:41.467Z,85.30
2019-02-18T06:16:41.423Z,85.34
2019-02-18T06:17:41.418Z,85.51
2019-02-18T06:18:41.420Z,86.45
2019-02-18T06:19:41.391Z,86.49
2019-02-18T06:20:41.379Z,86.49
2019-02-18T06:21:41.423Z,86.80
2019-02-18T06:22:41.367Z,86.80
2019-02-18T06:23:41.349Z,87.01
2019-02-18T06:24:41.355Z,87.12
2019-02-18T06:25:41.325Z,87.12
2019-02-18T06:26:41.311Z,86.91
2019-02-18T06:27:41.342Z,87.43
2019-02-18T06:28:41.325Z,87.01
2019-02-18T06:29:41.282Z,86.49
2019-02-18T06:30:41.298Z,86.43
2019-02-18T06:31:41.258Z,86.00
2019-02-18T06:32:41.254Z,86.11
2019-02-18T06:33:41.272Z,85.90
2019-02-18T06:34:41.237Z,86.53
2019-02-18T06:35:41.216Z,86.88
2019-02-18T06:36:41.302Z,86.94
2019-02-18T06:37:41.198Z,86.84
2019-02-18T06:38:41.189Z,87.05
2019-02-18T06:39:42.122Z,87.47
2019-02-18T06:40:41.180Z,87.30
2019-02-18T06:41:41.170Z,87.51
2019-02-18T06:42:41.180Z,87.61
2019-02-18T06:43:41.140Z,87.93
2019-02-18T06:44:41.137Z,87.61
2019-02-18T06:45:41.288Z,88.34
2019-02-18T06:46:41.111Z,88.13
2019-02-18T06:47:41.165Z,88.41
2019-02-18T06:48:41.114Z,87.84
2019-02-18T06:49:41.075Z,87.70
2019-02-18T06:50:41.052Z,86.97
2019-02-18T06:51:41.109Z,85.72
2019-02-18T06:52:41.037Z,85.47
2019-02-18T06:53:41.029Z,84.74
2019-02-18T06:54:41.013Z,85.47
2019-02-18T06:55:41.015Z,85.30
2019-02-18T06:56:40.986Z,85.36
2019-02-18T06:57:41.022Z,85.26
2019-02-18T06:58:41.039Z,85.26
2019-02-18T06:59:40.966Z,85.78
2019-02-18T07:00:40.952Z,85.26
2019-02-18T07:01:40.938Z,85.47
2019-02-18T07:02:40.924Z,85.47
2019-02-18T07:03:40.991Z,85.26
2019-02-18T07:04:40.899Z,85.22
2019-02-18T07:05:40.897Z,85.26
2019-02-18T07:06:40.885Z,85.58
2019-02-18T07:07:40.875Z,85.64
2019-02-18T07:08:40.865Z,85.26
2019-02-18T07:09:50.444Z,84.95
2019-02-18T07:10:41.839Z,85.02
2019-02-18T07:11:40.840Z,84.74
2019-02-18T07:12:40.823Z,84.84
2019-02-18T07:13:40.805Z,84.84
2019-02-18T07:14:40.801Z,84.22
2019-02-18T07:15:40.855Z,84.64
2019-02-18T07:16:40.781Z,84.53
2019-02-18T07:17:40.761Z,84.95
2019-02-18T07:18:40.748Z,85.36
2019-02-18T07:19:40.742Z,85.26
2019-02-18T07:20:40.748Z,85.02
2019-02-18T07:21:40.761Z,85.47
2019-02-18T07:22:40.710Z,85.43
2019-02-18T07:23:40.701Z,85.64
2019-02-18T07:24:40.692Z,85.33
2019-02-18T07:25:40.675Z,85.22
2019-02-18T07:26:40.663Z,85.12
2019-02-18T07:27:40.725Z,85.64
2019-02-18T07:28:40.667Z,85.43
2019-02-18T07:29:40.636Z,85.02
2019-02-18T07:30:40.667Z,85.19
2019-02-18T07:31:40.621Z,85.46
2019-02-18T07:32:40.652Z,84.11
2019-02-18T07:33:40.642Z,84.17
2019-02-18T07:34:40.589Z,83.86
2019-02-18T07:35:40.586Z,84.03
2019-02-18T07:36:40.557Z,83.40
2019-02-18T07:37:40.545Z,82.57
2019-02-18T07:38:40.539Z,82.53
2019-02-18T07:39:40.592Z,82.53
2019-02-18T07:40:40.511Z,82.12
2019-02-18T07:41:40.506Z,81.70
2019-02-18T07:42:40.507Z,81.67
2019-02-18T07:43:40.482Z,81.25
2019-02-18T07:44:40.476Z,81.01
2019-02-18T07:45:40.505Z,80.80
2019-02-18T07:46:40.481Z,80.38
2019-02-18T07:47:40.440Z,79.72
2019-02-18T07:48:40.437Z,79.76
2019-02-18T07:49:40.430Z,79.30
2019-02-18T07:50:40.413Z,79.97
2019-02-18T07:51:40.453Z,79.41
2019-02-18T07:52:40.403Z,79.86
2019-02-18T07:53:40.375Z,79.30
2019-02-18T07:54:40.359Z,80.59
2019-02-18T07:55:40.350Z,80.45
2019-02-18T07:56:40.343Z,80.38
2019-02-18T07:57:40.387Z,78.96
2019-02-18T07:58:40.319Z,78.51
2019-02-18T07:59:42.727Z,77.75
2019-02-18T08:00:40.339Z,78.09
2019-02-18T08:01:40.295Z,78.06
2019-02-18T08:02:40.274Z,78.37
2019-02-18T08:03:40.338Z,78.27
2019-02-18T08:04:40.248Z,78.58
2019-02-18T08:05:40.242Z,77.95
2019-02-18T08:06:40.240Z,78.47
2019-02-18T08:07:40.333Z,78.27
2019-02-18T08:08:40.275Z,78.02
2019-02-18T08:09:40.251Z,77.95
2019-02-18T08:10:42.082Z,77.54
2019-02-18T08:11:40.179Z,77.61
2019-02-18T08:12:40.167Z,78.02
2019-02-18T08:13:40.158Z,78.09
2019-02-18T08:14:40.139Z,77.67
2019-02-18T08:15:40.165Z,78.40
2019-02-18T08:16:40.118Z,79.44
2019-02-18T08:17:40.178Z,79.64
2019-02-18T08:18:40.100Z,79.64
2019-02-18T08:19:40.136Z,79.44
2019-02-18T08:20:40.072Z,79.44
2019-02-18T08:21:40.116Z,78.36
2019-02-18T08:22:40.050Z,78.57
2019-02-18T08:23:40.038Z,78.67
2019-02-18T08:24:40.029Z,79.30
2019-02-18T08:25:40.019Z,78.88
2019-02-18T08:26:40.036Z,79.09
2019-02-18T08:27:40.057Z,80.43
2019-02-18T08:28:40.005Z,80.43
2019-02-18T08:29:39.977Z,80.22
2019-02-18T08:30:39.978Z,80.12
2019-02-18T08:31:39.966Z,80.54
2019-02-18T08:32:39.936Z,79.30
2019-02-18T08:33:39.988Z,79.60
2019-02-18T08:34:39.928Z,78.12
2019-02-18T08:35:39.943Z,77.81
2019-02-18T08:36:39.910Z,78.02
2019-02-18T08:37:39.888Z,77.81
2019-02-18T08:38:39.899Z,78.12
2019-02-18T08:39:39.940Z,78.33
2019-02-18T08:40:39.855Z,77.87
2019-02-18T08:41:39.894Z,77.36
2019-02-18T08:42:39.839Z,77.67
2019-02-18T08:43:39.819Z,77.36
2019-02-18T08:44:39.815Z,77.67
2019-02-18T08:45:39.892Z,77.43
2019-02-18T08:46:39.815Z,77.84
2019-02-18T08:47:39.799Z,78.36
2019-02-18T08:48:39.790Z,78.46
2019-02-18T08:49:39.758Z,77.50
2019-02-18T08:50:39.748Z,77.29
2019-02-18T08:51:39.772Z,77.08
2019-02-18T08:52:39.731Z,76.73
2019-02-18T08:53:39.725Z,77.25
2019-02-18T08:54:39.815Z,76.84
2019-02-18T08:55:39.691Z,77.36
2019-02-18T08:56:39.674Z,77.87
2019-02-18T08:57:39.729Z,78.25
2019-02-18T08:58:39.652Z,78.87
2019-02-18T08:59:39.640Z,79.28
2019-02-18T09:00:39.635Z,79.18
2019-02-18T09:01:39.619Z,79.14
2019-02-18T09:02:39.613Z,79.14
2019-02-18T09:03:39.646Z,78.69
2019-02-18T09:04:39.592Z,79.21
2019-02-18T09:05:39.575Z,78.49
2019-02-18T09:06:39.590Z,78.08
2019-02-18T09:07:39.559Z,78.14
2019-02-18T09:08:39.545Z,76.63
2019-02-18T09:09:39.575Z,75.46
2019-02-18T09:10:39.522Z,75.12
2019-02-18T09:11:39.515Z,75.12
2019-02-18T09:12:39.549Z,75.94
2019-02-18T09:13:39.537Z,75.12
2019-02-18T09:14:39.499Z,75.18
2019-02-18T09:15:39.512Z,75.35
2019-02-18T09:16:39.453Z,75.05
2019-02-18T09:17:39.440Z,74.95
2019-02-18T09:18:39.442Z,75.05
2019-02-18T09:19:39.444Z,74.80
2019-02-18T09:20:39.428Z,75.08
2019-02-18T09:21:39.460Z,74.40
2019-02-18T09:22:39.386Z,74.15
2019-02-18T09:23:39.391Z,73.85
2019-02-18T09:24:39.389Z,72.89
2019-02-18T09:25:39.360Z,72.78
2019-02-18T09:26:39.346Z,72.89
2019-02-18T09:27:39.527Z,71.72
2019-02-18T09:28:39.407Z,71.21
2019-02-18T09:29:39.321Z,70.90
2019-02-18T09:30:39.308Z,70.76
2019-02-18T09:31:39.299Z,69.12
2019-02-18T09:32:39.317Z,69.29
2019-02-18T09:33:39.348Z,69.29
2019-02-18T09:34:39.260Z,69.29
2019-02-18T09:35:39.253Z,69.29
2019-02-18T09:36:39.228Z,69.47
2019-02-18T09:37:39.287Z,68.65
2019-02-18T09:38:39.218Z,67.83
2019-02-18T09:39:39.309Z,67.93
2019-02-18T09:40:44.659Z,67.08
2019-02-18T09:41:40.187Z,67.49
2019-02-18T09:42:39.209Z,66.67
2019-02-18T09:43:39.174Z,66.05
2019-02-18T09:44:39.148Z,64.59
2019-02-18T09:45:39.216Z,64.69
2019-02-18T09:46:40.383Z,64.59
2019-02-18T09:47:39.129Z,64.86
2019-02-18T09:48:39.105Z,64.14
2019-02-18T09:49:39.105Z,64.01
2019-02-18T09:50:39.085Z,64.22
2019-02-18T09:51:39.254Z,64.29
2019-02-18T09:52:39.052Z,64.18
2019-02-18T09:53:39.046Z,64.70
2019-02-18T09:54:39.065Z,64.77
2019-02-18T09:55:39.078Z,64.87
2019-02-18T09:56:39.013Z,65.08
2019-02-18T09:57:39.049Z,65.59
2019-02-18T09:58:38.995Z,66.58
2019-02-18T09:59:38.983Z,65.49
2019-02-18T10:00:38.971Z,64.54
2019-02-18T10:01:38.954Z,64.84
2019-02-18T10:02:38.938Z,64.81
2019-02-18T10:03:39.166Z,64.30
2019-02-18T10:04:38.922Z,64.10
2019-02-18T10:05:38.912Z,63.66
2019-02-18T10:06:38.918Z,63.35
2019-02-18T10:07:38.892Z,62.43
2019-02-18T10:08:38.879Z,62.74
2019-02-18T10:09:38.939Z,62.30
2019-02-18T10:10:38.880Z,61.38
2019-02-18T10:11:38.881Z,61.46
2019-02-18T10:12:38.834Z,61.97
2019-02-18T10:13:38.836Z,61.97
2019-02-18T10:14:38.818Z,60.10
2019-02-18T10:15:38.838Z,59.69
2019-02-18T10:16:38.790Z,59.16
2019-02-18T10:17:38.797Z,58.85
2019-02-18T10:18:38.779Z,58.03
2019-02-18T10:19:38.760Z,58.51
2019-02-18T10:20:38.750Z,57.19
2019-02-18T10:21:38.843Z,57.37
2019-02-18T10:22:38.740Z,57.50
2019-02-18T10:23:38.711Z,56.55
2019-02-18T10:24:50.262Z,56.17
2019-02-18T10:25:39.794Z,54.11
2019-02-18T10:26:38.705Z,54.11
2019-02-18T10:27:38.712Z,53.88
2019-02-18T10:28:38.674Z,53.78
2019-02-18T10:29:38.679Z,54.49
2019-02-18T10:30:38.634Z,55.00
2019-02-18T10:31:38.627Z,54.05
2019-02-18T10:32:38.618Z,54.16
2019-02-18T10:33:38.679Z,54.46
2019-02-18T10:34:38.585Z,54.36
2019-02-18T10:35:38.584Z,54.36
2019-02-18T10:36:38.567Z,54.46
2019-02-18T10:37:38.552Z,53.85
2019-02-18T10:38:40.237Z,54.85
2019-02-18T10:39:38.587Z,54.44
2019-02-18T10:40:38.540Z,55.25
2019-02-18T10:41:38.579Z,55.35
2019-02-18T10:42:38.497Z,54.33
2019-02-18T10:43:38.501Z,54.00
2019-02-18T10:44:38.481Z,52.78
2019-02-18T10:45:38.526Z,53.06
2019-02-18T10:46:40.583Z,53.17
2019-02-18T10:47:38.441Z,50.50
2019-02-18T10:48:38.432Z,50.88
2019-02-18T10:49:38.420Z,52.40
2019-02-18T10:50:38.411Z,50.27
2019-02-18T10:51:38.593Z,50.27
2019-02-18T10:52:38.422Z,48.34
2019-02-18T10:53:38.377Z,48.55
2019-02-18T10:54:38.371Z,50.35
2019-02-18T10:55:38.369Z,49.84
2019-02-18T10:56:38.345Z,51.26
2019-02-18T10:57:38.393Z,46.29
2019-02-18T10:58:38.326Z,44.97
2019-02-18T10:59:38.315Z,43.32
2019-02-18T11:00:38.306Z,43.84
2019-02-18T11:01:38.297Z,42.72
2019-02-18T11:02:38.310Z,43.23
2019-02-18T11:03:38.369Z,41.68
2019-02-18T11:04:38.271Z,44.01
2019-02-18T11:05:38.249Z,44.62
2019-02-18T11:06:38.263Z,44.62
2019-02-18T11:07:38.224Z,44.42
2019-02-18T11:08:38.215Z,43.81
2019-02-18T11:09:38.257Z,43.30
2019-02-18T11:10:38.182Z,43.51
2019-02-18T11:11:38.172Z,44.62
2019-02-18T11:12:38.262Z,43.51
2019-02-18T11:13:38.175Z,44.42
2019-02-18T11:14:38.140Z,45.03
2019-02-18T11:15:38.241Z,45.31
2019-02-18T11:16:38.133Z,45.51
2019-02-18T11:17:39.139Z,42.47
2019-02-18T11:18:38.092Z,43.49
2019-02-18T11:19:38.090Z,43.59
2019-02-18T11:20:38.094Z,44.70
2019-02-18T11:21:38.094Z,44.78
2019-02-18T11:22:38.066Z,45.09
2019-02-18T11:23:38.061Z,45.90
2019-02-18T11:24:38.047Z,45.29
2019-02-18T11:25:38.034Z,44.48
2019-02-18T11:26:38.017Z,44.36
2019-02-18T11:27:38.038Z,44.87
2019-02-18T11:28:37.974Z,44.36
2019-02-18T11:29:37.963Z,43.35
2019-02-18T11:30:39.146Z,42.63
2019-02-18T11:31:37.958Z,43.44
2019-02-18T11:32:37.996Z,43.55
2019-02-18T11:33:38.002Z,43.52
2019-02-18T11:34:37.923Z,43.02
2019-02-18T11:35:37.956Z,42.41
2019-02-18T11:36:37.893Z,43.14
2019-02-18T11:37:37.883Z,42.72
2019-02-18T11:38:37.873Z,41.50
2019-02-18T11:39:37.899Z,41.60
2019-02-18T11:40:37.851Z,40.39
2019-02-18T11:41:37.858Z,41.60
2019-02-18T11:42:37.818Z,41.78
2019-02-18T11:43:37.808Z,42.60
2019-02-18T11:44:37.797Z,41.71
2019-02-18T11:45:37.836Z,40.88
2019-02-18T11:46:37.803Z,40.98
2019-02-18T11:47:37.774Z,40.88
2019-02-18T11:48:37.759Z,42.40
2019-02-18T11:49:37.751Z,43.41
2019-02-18T11:50:37.744Z,42.82
2019-02-18T11:51:37.765Z,41.80
2019-02-18T11:52:37.711Z,41.78
2019-02-18T11:53:37.691Z,41.18
2019-02-18T11:54:37.678Z,41.69
2019-02-18T11:55:39.022Z,40.98
2019-02-18T11:56:37.656Z,41.78
2019-02-18T11:57:37.695Z,40.67
2019-02-18T11:58:37.637Z,41.69
2019-02-18T11:59:37.686Z,41.69
2019-02-18T12:00:37.635Z,42.80
2019-02-18T12:01:37.611Z,42.60
2019-02-18T12:02:37.635Z,41.58
2019-02-18T12:03:37.667Z,41.49
2019-02-18T12:04:37.576Z,41.18
2019-02-18T12:05:37.568Z,40.55
2019-02-18T12:06:37.582Z,40.66
2019-02-18T12:07:37.542Z,40.35
2019-02-18T12:08:37.532Z,39.04
2019-02-18T12:09:37.589Z,38.63
2019-02-18T12:10:37.502Z,39.24
2019-02-18T12:11:38.305Z,39.95
2019-02-18T12:12:37.478Z,39.24
2019-02-18T12:13:37.480Z,38.63
2019-02-18T12:14:37.466Z,38.84
2019-02-18T12:15:37.608Z,38.43
2019-02-18T12:16:37.437Z,38.71
2019-02-18T12:17:37.423Z,38.21
2019-02-18T12:18:37.469Z,38.41
2019-02-18T12:19:37.403Z,38.71
2019-02-18T12:20:37.397Z,37.30
2019-02-18T12:21:37.416Z,37.90
2019-02-18T12:22:37.379Z,38.92
2019-02-18T12:23:37.355Z,39.02
2019-02-18T12:24:39.176Z,38.31
2019-02-18T12:25:37.338Z,37.50
2019-02-18T12:26:37.323Z,38.61
2019-02-18T12:27:37.590Z,37.70
2019-02-18T12:28:37.301Z,38.49
2019-02-18T12:29:37.289Z,38.29
2019-02-18T12:30:37.278Z,37.18
2019-02-18T12:31:37.267Z,37.68
2019-02-18T12:32:37.266Z,36.86
2019-02-18T12:33:37.278Z,38.68
2019-02-18T12:34:37.231Z,37.75
2019-02-18T12:35:37.228Z,37.23
2019-02-18T12:36:37.236Z,37.62
2019-02-18T12:37:37.203Z,37.82
2019-02-18T12:38:37.200Z,37.09
2019-02-18T12:39:37.208Z,37.09
2019-02-18T12:40:37.166Z,37.48
2019-02-18T12:41:37.154Z,36.96
2019-02-18T12:42:37.145Z,35.53
2019-02-18T12:43:37.136Z,35.53
2019-02-18T12:44:37.133Z,35.21
2019-02-18T12:45:37.172Z,33.69
2019-02-18T12:46:37.114Z,33.37
2019-02-18T12:47:37.089Z,33.86
2019-02-18T12:48:37.089Z,33.94
2019-02-18T12:49:37.073Z,33.51
2019-02-18T12:50:37.084Z,33.00
2019-02-18T12:51:37.098Z,33.40
2019-02-18T12:52:37.034Z,33.09